Tiempo atmosférico en la estación meteorológica de Forua, Bizkaia (45 m.)



Fecha
DESCASC
Temp. máxima en grados centígrados (hora)
DESCASC
Temp. mínima en grados centígrados (hora)
DESCASC
Temp. media en grados centígrados
DESCASC
Racha de viento máxima en m/sg (hora)
DESCASC
Velocidad máxima media en intervalos de 10 minutos(hora)
DESCASC
Precipitaciones diarias en mm
DESCASC
Precipitaciones de 00:00 a 06:00 en mm
DESCASC
Precipitaciones de 06:00 a 12:00 en mm
DESCASC
Precipitaciones de 12:00 a 18:00 en mm
DESCASC
Precipitaciones de 18:00 a 24:00 en mm
DESCASC
25-04-2019 19.5 (16:20) 9 (06:20) 14.3 14.44 (14:40) 8.61 (10:20) 0.2 0.2 0 0 0
24-04-2019 18.1 (14:30) 5.8 (07:10) 12 13.89 (14:00) 7.5 (15:40) 5.4 1.2 0.2 0 4
23-04-2019 19.3 (13:30) 9.4 (23:50) 14.3 11.94 (22:40) 5.56 (16:10) 9.2 0 0 8.4 0.8
22-04-2019 20.5 (13:20) 10.1 (00:00) 15.3 6.39 (16:00) 3.89 (15:40) 0 0 0 0 0
21-04-2019 17 (13:10) 6.9 (00:00) 12 7.5 (13:50) 4.17 (14:30) 0 0 0 0 0
20-04-2019 19 (13:10) 8.1 (00:00) 13.6 9.17 (14:50) 5.83 (14:40) 0 0 0 0 0
19-04-2019 20.7 (13:40) 10.8 (00:00) 15.8 5.83 (15:30) 3.33 (16:00) 0.2 0.2 0 0 0
18-04-2019 20.2 (00:30) 12.2 (00:00) 16.2 11.11 (08:50) 5.83 (06:20) 0.4 0 0 0.4 0
17-04-2019 23.9 (16:10) 8.9 (00:00) 16.4 9.44 (11:00) 6.11 (11:30) 0 0 0 0 0
16-04-2019 17.4 (14:40) 7.6 (00:00) 12.5 9.44 (16:20) 5 (15:20) 0 0 0 0 0
15-04-2019 24.5 (16:10) 8.9 (00:00) 16.7 17.5 (16:20) 10.83 (16:30) 16.6 0 0 12.2 4.4
14-04-2019 18.1 (18:00) 8.5 (00:00) 13.3 6.94 (15:40) 4.17 (15:50) 0 0 0 0 0
13-04-2019 18.6 (16:00) 1 (00:00) 9.8 8.33 (16:10) 5.56 (17:40) 0 0 0 0 0
12-04-2019 15.6 (16:20) 5.9 (00:00) 10.8 7.22 (14:40) 4.17 (14:40) 0 0 0 0 0
11-04-2019 13.2 (15:10) 6.2 (00:00) 9.7 8.33 (16:10) 4.17 (15:30) 1.6 0 1.4 0.2 0
10-04-2019 13.4 (13:20) 5.2 (00:00) 9.3 7.22 (13:20) 4.17 (13:20) 10.8 0 2.6 0 8.2
09-04-2019 18.4 (13:20) 4 (00:00) 11.2 11.11 (18:40) 6.11 (18:40) 14 0 0 0 14
08-04-2019 15.3 (19:00) 7.2 (00:00) 11.3 7.78 (03:30) 3.89 (00:40) 1.6 0 0.6 1 0
07-04-2019 15.3 (17:00) 6.2 (00:00) 10.8 9.72 (00:10) 4.72 (00:10) 3.6 2.4 1.2 0 0
06-04-2019 16.9 (16:40) 5.4 (00:00) 11.1 11.11 (12:00) 6.11 (12:00) 4.6 0.2 0 0 4.4
05-04-2019 16.8 (14:10) 7.8 (00:00) 12.3 11.67 (01:10) 6.94 (01:10) 1 0 0 0 1
04-04-2019 15.8 (16:00) 2.4 (00:00) 9.1 14.17 (23:30) 8.89 (23:30) 17.4 15.2 2.2 0 0
03-04-2019 9.7 (00:00) 3.3 (00:00) 6.5 14.44 (20:50) 5.83 (20:50) 14.6 0.8 3.2 5.4 5.2
02-04-2019 16.1 (15:00) 7.7 (00:00) 11.9 10.28 (15:40) 6.11 (15:50) 2 0 0 0 2
01-04-2019 16.9 (14:40) 9.8 (00:00) 13.3 5.56 (16:00) 3.61 (16:00) 1.4 0.4 1 0 0
31-03-2019 21.2 (14:20) 4.8 (00:00) 13 7.5 (16:50) 5 (17:50) 0 0 0 0 0
30-03-2019 23.4 (14:30) 9.4 (00:00) 16.4 10.83 (05:20) 6.39 (05:00) 0 0 0 0 0
29-03-2019 19.6 (12:40) 3.1 (00:00) 11.4 7.5 (14:50) 4.72 (15:30) 0 0 0 0 0
28-03-2019 15.4 (14:40) 4.5 (00:00) 9.9 7.78 (13:00) 5 (12:50) 0 0 0 0 0
27-03-2019 14 (12:30) 1.8 (00:00) 7.9 8.06 (13:40) 5.28 (15:40) 0 0 0 0 0

Gráficas

Temp. máximas Temp. mínimas Temp. medias Precipitaciones Rachas de viento máximas Velocidades máximas media en intervalos de 10 minutos

Datos horarios

Fecha y hora oficial Temperatura (ºC) Velocidad del viento (km/h) Dirección del viento Racha (km/h) Dirección de racha Precipitación (mm) Presión (hPa) Tendencia (hPa) Humedad (%)
2019-04-25 23:00:00 12.4 9 Norte 33 Noroeste 0 -- -- 64
2019-04-25 22:00:00 12.9 18 Noroeste 49 Noroeste 0 -- -- 64
2019-04-25 21:00:00 15.6 19 Oeste 44 Sudoeste 0 -- -- 47
2019-04-25 20:00:00 16.4 18 Oeste 44 Oeste 0 -- -- 47
2019-04-25 19:00:00 18 15 Oeste 49 Oeste 0 -- -- 42
2019-04-25 18:00:00 18.4 20 Oeste 46 Oeste 0 -- -- 41
2019-04-25 17:00:00 18.8 29 Oeste 51 Oeste 0 -- -- 41
2019-04-25 16:00:00 18.9 18 Oeste 50 Oeste 0 -- -- 42
2019-04-25 15:00:00 18.4 22 Oeste 52 Oeste 0 -- -- 43
2019-04-25 14:00:00 17.4 22 Oeste 46 Sudoeste 0 -- -- 47
2019-04-25 13:00:00 16.5 23 Sudoeste 45 Sudoeste 0 -- -- 51
2019-04-25 12:00:00 14.5 20 Sudoeste 43 Sudoeste 0 -- -- 55
2019-04-25 11:00:00 13.9 24 Oeste 50 Oeste 0 -- -- 56
2019-04-25 10:00:00 13.6 26 Oeste 43 Oeste 0 -- -- 58
2019-04-25 09:00:00 11.8 24 Sudoeste 35 Sudoeste 0 -- -- 68
2019-04-25 08:00:00 10.3 10 Sudoeste 23 Sudoeste 0 -- -- 73
2019-04-25 07:00:00 9.5 11 Sudoeste 21 Sudoeste 0 -- -- 77
2019-04-25 06:00:00 9.2 11 Sudoeste 17 Sudoeste 0 -- -- 88
2019-04-25 05:00:00 9.3 9 Sudoeste 15 Sudoeste 0 -- -- 94
2019-04-25 04:00:00 10.3 3 Sudoeste 5 Noroeste 0 -- -- 94
2019-04-25 03:00:00 11 4 Norte 14 Norte 0.2 -- -- 93
2019-04-25 02:00:00 11.2 4 Nordeste 9 Sudoeste 0 -- -- 92
2019-04-25 01:00:00 11 6 Sudoeste 12 Sudoeste 0 -- -- 93
2019-04-25 00:00:00 11.1 10 Sudoeste 18 Sur 0 -- -- 94
2019-04-24 23:00:00 11.7 7 Oeste 12 Sudoeste 0 -- -- 90
2019-04-24 22:00:00 12.3 9 Sudoeste 25 Sudoeste 0 -- -- 86
2019-04-24 21:00:00 11.9 8 Sudoeste 15 Sudoeste 0 -- -- 91
2019-04-24 20:00:00 11.9 12 Sudoeste 28 Sudoeste 2.4 -- -- 91
2019-04-24 19:00:00 13 9 Sudoeste 40 Sudoeste 1.6 -- -- 87
2019-04-24 18:00:00 14.2 16 Sudoeste 44 Sudoeste 0 -- -- 73
2019-04-24 17:00:00 15.4 13 Sudoeste 40 Oeste 0 -- -- 64
2019-04-24 16:00:00 15.4 14 Sudoeste 46 Sudoeste 0 -- -- 58
2019-04-24 15:00:00 17.8 18 Sudoeste 46 Sudoeste 0 -- -- 54
2019-04-24 14:00:00 16.2 22 Sudoeste 50 Sudoeste 0 -- -- 54
2019-04-24 13:00:00 13.7 15 Sudoeste 30 Sudoeste 0 -- -- 60
2019-04-24 12:00:00 12 13 Sudoeste 43 Sudoeste 0 -- -- 63
2019-04-24 11:00:00 11.7 22 Sudoeste 40 Sudoeste 0 -- -- 63
2019-04-24 10:00:00 10.9 19 Sudoeste 37 Sudoeste 0 -- -- 69
2019-04-24 09:00:00 10.2 10 Sudoeste 23 Oeste 0 -- -- 79
2019-04-24 08:00:00 7.3 13 Sudoeste 21 Sudoeste 0 -- -- 90
2019-04-24 07:00:00 6 6 Sudoeste 9 Sudoeste 0.2 -- -- 99
2019-04-24 06:00:00 6.5 4 Sudoeste 12 Sudoeste 0 -- -- 98
2019-04-24 05:00:00 7.4 5 Sudoeste 10 Sur 0 -- -- 98
2019-04-24 04:00:00 8.3 6 Sudoeste 11 Sudoeste 0 -- -- 98
2019-04-24 03:00:00 8.8 8 Sudoeste 13 Sur 0 -- -- 98
2019-04-24 02:00:00 8.8 5 Sur 18 Sudoeste 0.2 -- -- 98
2019-04-24 01:00:00 8.9 8 Sudoeste 15 Sudoeste 1 -- -- 97
2019-04-24 00:00:00 9.4 7 Sur 37 Norte 0.6 -- -- 94
2019-04-23 23:00:00 10.1 12 Norte 43 Norte 0.2 -- -- 92
2019-04-23 22:00:00 11.6 2 Nordeste 17 Norte 0 -- -- 98
2019-04-23 21:00:00 12 2 Oeste 5 Noroeste 0 -- -- 98
2019-04-23 20:00:00 12.6 2 Norte 5 Sur 0 -- -- 97
2019-04-23 19:00:00 12.6 3 Nordeste 9 Norte 0 -- -- 96
2019-04-23 18:00:00 11.9 3 Sur 11 Sudoeste 0 -- -- 97
2019-04-23 17:00:00 11.8 4 Sur 37 Oeste 2 -- -- 97
2019-04-23 16:00:00 12.2 18 Noroeste 39 Noroeste 5 -- -- 88
2019-04-23 15:00:00 15.3 8 Norte 14 Nordeste 1.2 -- -- 89
2019-04-23 14:00:00 17.6 5 Oeste 13 Oeste 0.2 -- -- 77
2019-04-23 13:00:00 19 0 Calma 8 Oeste 0 -- -- 67
2019-04-23 12:00:00 17.8 0 Calma 9 Oeste 0 -- -- 73
2019-04-23 11:00:00 17 4 Sudoeste 13 Oeste 0 -- -- 70
2019-04-23 10:00:00 16.4 7 Oeste 20 Oeste 0 -- -- 69
2019-04-23 09:00:00 15.4 13 Oeste 22 Oeste 0 -- -- 69
2019-04-23 08:00:00 13.5 8 Sudoeste 14 Oeste 0 -- -- 76
2019-04-23 07:00:00 13.6 5 Sudoeste 22 Oeste 0 -- -- 73
2019-04-23 06:00:00 15.8 14 Oeste 24 Oeste 0 -- -- 63
2019-04-23 05:00:00 14 13 Oeste 23 Oeste 0 -- -- 70
2019-04-23 04:00:00 14.6 15 Oeste 22 Oeste 0 -- -- 67
2019-04-23 03:00:00 13.7 9 Sudoeste 14 Oeste 0 -- -- 71
2019-04-23 02:00:00 14.9 10 Oeste 17 Oeste 0 -- -- 66
2019-04-23 01:00:00 14.2 8 Oeste 11 Oeste 0 -- -- 70
2019-04-23 00:00:00 13.1 6 Sur 8 Sudoeste 0 -- -- 88
2019-04-22 23:00:00 13.8 5 Sudoeste 9 Sudoeste 0 -- -- 83
2019-04-22 22:00:00 15.4 2 Este 7 Oeste 0 -- -- 75
2019-04-22 21:00:00 16.3 0 Calma 6 Nordeste 0 -- -- 69
2019-04-22 20:00:00 17 4 Nordeste 11 Norte 0 -- -- 68
2019-04-22 19:00:00 17.8 7 Nordeste 15 Norte 0 -- -- 64
2019-04-22 18:00:00 19 9 Norte 16 Nordeste 0 -- -- 68
2019-04-22 17:00:00 19.7 10 Nordeste 22 Nordeste 0 -- -- 66
2019-04-22 16:00:00 19.4 12 Nordeste 23 Nordeste 0 -- -- 67
2019-04-22 15:00:00 20.2 12 Nordeste 20 Nordeste 0 -- -- 65
2019-04-22 14:00:00 20.3 8 Nordeste 18 Norte 0 -- -- 66
2019-04-22 13:00:00 20.1 6 Sur 15 Sur 0 -- -- 59
2019-04-22 12:00:00 18.4 6 Sur 11 Oeste 0 -- -- 67
2019-04-22 11:00:00 16.8 5 Sudoeste 13 Sudoeste 0 -- -- 72
2019-04-22 10:00:00 14.5 5 Sudoeste 11 Sur 0 -- -- 82
2019-04-22 09:00:00 12.1 3 Sudoeste 8 Sudoeste 0 -- -- 98
2019-04-22 08:00:00 10.2 5 Sudoeste 8 Sudoeste 0 -- -- 98
2019-04-22 07:00:00 10.2 4 Sudoeste 8 Sudoeste 0 -- -- 98
2019-04-22 06:00:00 10.3 4 Sudoeste 6 Sudoeste 0 -- -- 98
2019-04-22 05:00:00 10.3 5 Sudoeste 7 Sudoeste 0 -- -- 98
2019-04-22 04:00:00 10.2 4 Oeste 8 Oeste 0 -- -- 98
2019-04-22 03:00:00 10.2 4 Oeste 7 Sudoeste 0 -- -- 98
2019-04-22 02:00:00 10.3 6 Sudoeste 8 Sudoeste 0 -- -- 97
2019-04-22 01:00:00 10.6 0 Calma 5 Sudoeste 0 -- -- 95
2019-04-22 00:00:00 11.3 4 Sudoeste 5 Sur 0 -- -- 94
2019-04-21 23:00:00 11.7 4 Sur 9 Oeste 0 -- -- 92
2019-04-21 22:00:00 12.5 0 Calma 4 Sudeste 0 -- -- 91
2019-04-21 21:00:00 13.1 3 Norte 6 Norte 0 -- -- 87
2019-04-21 20:00:00 13.8 4 Norte 17 Nordeste 0 -- -- 83
2019-04-21 19:00:00 15 9 Nordeste 18 Nordeste 0 -- -- 76
2019-04-21 18:00:00 15.9 13 Norte 22 Nordeste 0 -- -- 78
2019-04-21 17:00:00 16 9 Nordeste 18 Norte 0 -- -- 76
2019-04-21 16:00:00 15.4 9 Este 17 Este 0 -- -- 81
2019-04-21 15:00:00 15.2 13 Norte 23 Nordeste 0 -- -- 82
2019-04-21 14:00:00 15.6 15 Nordeste 27 Nordeste 0 -- -- 81
2019-04-21 13:00:00 16.9 12 Nordeste 21 Nordeste 0 -- -- 77
2019-04-21 12:00:00 15.8 10 Nordeste 19 Nordeste 0 -- -- 77
2019-04-21 11:00:00 13.5 2 Oeste 8 Oeste 0 -- -- 80
2019-04-21 10:00:00 9.1 3 Sudoeste 8 Sudoeste 0 -- -- 96
2019-04-21 09:00:00 7.6 5 Sudoeste 10 Sudoeste 0 -- -- 97
2019-04-21 08:00:00 7 7 Sudoeste 10 Sudoeste 0 -- -- 97
2019-04-21 07:00:00 7.1 2 Sudoeste 9 Sudoeste 0 -- -- 96
2019-04-21 06:00:00 7.7 6 Sudoeste 12 Oeste 0 -- -- 95
2019-04-21 05:00:00 8.1 3 Sudoeste 11 Sudoeste 0 -- -- 94
2019-04-21 04:00:00 8.7 8 Sudoeste 11 Sudoeste 0 -- -- 94
2019-04-21 03:00:00 9.3 5 Oeste 12 Oeste 0 -- -- 93
2019-04-21 02:00:00 9.6 9 Oeste 13 Oeste 0 -- -- 93
2019-04-21 01:00:00 10.4 6 Sudoeste 13 Sudoeste 0 -- -- 90
2019-04-21 00:00:00 11.3 5 Sudoeste 8 Sudoeste 0 -- -- 89
2019-04-20 23:00:00 12.3 4 Sudoeste 8 Sudoeste 0 -- -- 85
2019-04-20 22:00:00 13.3 5 Sudoeste 8 Sudoeste 0 -- -- 82
2019-04-20 21:00:00 14 0 Calma 9 Norte 0 -- -- 78
2019-04-20 20:00:00 15.6 6 Norte 21 Norte 0 -- -- 73
2019-04-20 19:00:00 16.7 12 Norte 24 Norte 0 -- -- 72
2019-04-20 18:00:00 16.9 13 Nordeste 26 Norte 0 -- -- 70
2019-04-20 17:00:00 17.9 16 Nordeste 30 Nordeste 0 -- -- 64
2019-04-20 16:00:00 18 17 Norte 29 Norte 0 -- -- 65
2019-04-20 15:00:00 17.3 20 Norte 33 Norte 0 -- -- 72
2019-04-20 14:00:00 18.8 15 Norte 26 Norte 0 -- -- 58
2019-04-20 13:00:00 18.7 13 Nordeste 22 Este 0 -- -- 60
2019-04-20 12:00:00 18.4 11 Nordeste 19 Nordeste 0 -- -- 59
2019-04-20 11:00:00 17.2 5 Sudeste 9 Sudoeste 0 -- -- 69
2019-04-20 10:00:00 13.6 3 Sudoeste 6 Sudoeste 0 -- -- 89
2019-04-20 09:00:00 10.5 2 Sudoeste 11 Sudoeste 0 -- -- 99
2019-04-20 08:00:00 8.2 5 Sudoeste 8 Sudoeste 0 -- -- 99
2019-04-20 07:00:00 8.3 5 Oeste 10 Sudoeste 0 -- -- 97
2019-04-20 06:00:00 8.8 7 Sudoeste 9 Sudoeste 0 -- -- 97
2019-04-20 05:00:00 9.2 6 Sudoeste 14 Sudoeste 0 -- -- 97
2019-04-20 04:00:00 9.4 6 Sudoeste 10 Sudoeste 0 -- -- 97
2019-04-20 03:00:00 9.7 9 Sudoeste 13 Sudoeste 0 -- -- 96
2019-04-20 02:00:00 10.3 3 Sur 9 Sudoeste 0 -- -- 95
2019-04-20 01:00:00 11 6 Sudoeste 11 Sudoeste 0 -- -- 93
2019-04-20 00:00:00 12.2 4 Nordeste 12 Norte 0 -- -- 91
2019-04-19 23:00:00 12.1 3 Nordeste 10 Nordeste 0 -- -- 89
2019-04-19 22:00:00 13.7 0 Calma 4 Noroeste 0 -- -- 83
2019-04-19 21:00:00 14.8 2 Sudeste 11 Nordeste 0 -- -- 78
2019-04-19 20:00:00 16.5 8 Nordeste 12 Norte 0 -- -- 73
2019-04-19 19:00:00 17.1 9 Norte 16 Nordeste 0 -- -- 74
2019-04-19 18:00:00 17.7 9 Nordeste 18 Norte 0 -- -- 73
2019-04-19 17:00:00 17.8 9 Nordeste 21 Norte 0 -- -- 74
2019-04-19 16:00:00 18.3 12 Norte 21 Nordeste 0 -- -- 71
2019-04-19 15:00:00 19.5 9 Nordeste 19 Nordeste 0 -- -- 67
2019-04-19 14:00:00 20.5 10 Nordeste 17 Norte 0 -- -- 64
2019-04-19 13:00:00 19.5 0 Calma 4 Nordeste 0 -- -- 67
2019-04-19 12:00:00 16.7 0 Calma 4 Sur 0 -- -- 82
2019-04-19 11:00:00 14.3 0 Calma 4 Este 0 -- -- 95
2019-04-19 10:00:00 12.3 2 Sudoeste 8 Sudoeste 0 -- -- 99
2019-04-19 09:00:00 11.5 2 Oeste 9 Norte 0 -- -- 99
2019-04-19 08:00:00 11.4 6 Norte 13 Nordeste 0 -- -- 99
2019-04-19 07:00:00 11.1 5 Nordeste 12 Norte 0 -- -- 100
2019-04-19 06:00:00 10.8 4 Norte 11 Sudoeste 0 -- -- 99
2019-04-19 05:00:00 11.1 4 Sudoeste 8 Sudoeste 0 -- -- 99
2019-04-19 04:00:00 11.2 2 Sudoeste 9 Sur 0.2 -- -- 98
2019-04-19 03:00:00 11.4 5 Sur 9 Sudoeste 0 -- -- 97
2019-04-19 02:00:00 11.7 3 Sudoeste 9 Sudoeste 0 -- -- 97
2019-04-19 01:00:00 11.9 0 Calma 5 Nordeste 0 -- -- 96
2019-04-19 00:00:00 12.2 0 Calma 5 Oeste 0 -- -- 95
2019-04-18 23:00:00 12.8 5 Sudoeste 6 Sudoeste 0 -- -- 92
2019-04-18 22:00:00 13.1 2 Sudoeste 4 Sudoeste 0 -- -- 90
2019-04-18 21:00:00 13.7 2 Sudoeste 9 Este 0 -- -- 86
2019-04-18 20:00:00 14.1 4 Nordeste 13 Este 0 -- -- 85
2019-04-18 19:00:00 14.3 10 Este 17 Sudeste 0 -- -- 85
2019-04-18 18:00:00 14.7 8 Nordeste 20 Este 0 -- -- 87
2019-04-18 17:00:00 15.3 9 Nordeste 18 Este 0 -- -- 86
2019-04-18 16:00:00 14.6 11 Este 22 Este 0 -- -- 89
2019-04-18 15:00:00 15.2 12 Este 22 Este 0 -- -- 90
2019-04-18 14:00:00 13.8 9 Nordeste 19 Norte 0.2 -- -- 93
2019-04-18 13:00:00 14.9 8 Norte 11 Norte 0.2 -- -- 89
2019-04-18 12:00:00 15.5 0 Calma 8 Sudeste 0 -- -- 77
2019-04-18 11:00:00 15.7 4 Sur 23 Oeste 0 -- -- 70
2019-04-18 10:00:00 16.1 12 Oeste 32 Oeste 0 -- -- 67
2019-04-18 09:00:00 16.8 17 Oeste 40 Oeste 0 -- -- 62
2019-04-18 08:00:00 17.6 3 Sur 28 Oeste 0 -- -- 60
2019-04-18 07:00:00 18 17 Oeste 35 Oeste 0 -- -- 57
2019-04-18 06:00:00 17.7 14 Sudoeste 24 Sudoeste 0 -- -- 55
2019-04-18 05:00:00 17.3 12 Sudoeste 24 Sudoeste 0 -- -- 55
2019-04-18 04:00:00 18.4 7 Sudoeste 31 Sudoeste 0 -- -- 50
2019-04-18 03:00:00 19.4 15 Sudoeste 30 Sudoeste 0 -- -- 50
2019-04-18 02:00:00 19.2 12 Sudoeste 30 Sudoeste 0 -- -- 52
2019-04-18 01:00:00 19.9 11 Sudoeste 31 Sudoeste 0 -- -- 50
2019-04-18 00:00:00 19.6 11 Sudoeste 23 Sudoeste 0 -- -- 51
2019-04-17 23:00:00 16 3 Nordeste 16 Nordeste 0 -- -- 79
2019-04-17 22:00:00 16.4 6 Norte 14 Norte 0 -- -- 76
2019-04-17 21:00:00 17.1 7 Norte 13 Norte 0 -- -- 75
2019-04-17 20:00:00 18.5 7 Norte 13 Nordeste 0 -- -- 68
2019-04-17 19:00:00 20.4 9 Norte 14 Nordeste 0 -- -- 63
2019-04-17 18:00:00 21.9 4 Norte 11 Sur 0 -- -- 60
2019-04-17 17:00:00 23.2 5 Sur 20 Sudoeste 0 -- -- 49
2019-04-17 16:00:00 23.7 12 Sudoeste 31 Sudoeste 0 -- -- 50
2019-04-17 15:00:00 23.4 15 Sudoeste 28 Oeste 0 -- -- 50
2019-04-17 14:00:00 20.9 6 Sur 12 Sudeste 0 -- -- 56
2019-04-17 13:00:00 19.2 9 Sur 25 Sudoeste 0 -- -- 59
2019-04-17 12:00:00 17.9 8 Sur 34 Sudoeste 0 -- -- 60
2019-04-17 11:00:00 17.1 18 Sudoeste 34 Sudoeste 0 -- -- 61
2019-04-17 10:00:00 16.7 17 Sudoeste 33 Sudoeste 0 -- -- 62
2019-04-17 09:00:00 16.6 21 Sudoeste 32 Oeste 0 -- -- 62
2019-04-17 08:00:00 16.1 4 Sur 12 Sur 0 -- -- 60
2019-04-17 07:00:00 15.3 9 Sur 27 Sudoeste 0 -- -- 63
2019-04-17 06:00:00 13.9 8 Sudoeste 15 Oeste 0 -- -- 70
2019-04-17 05:00:00 12.1 0 Calma 8 Sudeste 0 -- -- 82
2019-04-17 04:00:00 9.1 2 Nordeste 9 Oeste 0 -- -- 98
2019-04-17 03:00:00 9.2 2 Noroeste 6 Sudoeste 0 -- -- 98
2019-04-17 02:00:00 9.4 4 Sudoeste 9 Sudoeste 0 -- -- 96
2019-04-17 01:00:00 10.2 3 Sudoeste 9 Oeste 0 -- -- 94
2019-04-17 00:00:00 11.7 3 Sudoeste 4 Sudoeste 0 -- -- 89
2019-04-16 23:00:00 12.5 0 Calma 10 Nordeste 0 -- -- 85
2019-04-16 22:00:00 13.6 8 Norte 15 Norte 0 -- -- 81
2019-04-16 21:00:00 13.9 9 Norte 15 Norte 0 -- -- 79
2019-04-16 20:00:00 15.7 5 Norte 13 Este 0 -- -- 73
2019-04-16 19:00:00 16.8 9 Este 25 Nordeste 0 -- -- 68
2019-04-16 18:00:00 17.3 14 Este 29 Este 0 -- -- 69
2019-04-16 17:00:00 16.9 18 Este 34 Este 0 -- -- 69
2019-04-16 16:00:00 17 18 Este 31 Este 0 -- -- 73
2019-04-16 15:00:00 17.2 17 Este 31 Este 0 -- -- 72
2019-04-16 14:00:00 17.1 15 Este 24 Este 0 -- -- 72
2019-04-16 13:00:00 16.8 10 Este 19 Este 0 -- -- 72
2019-04-16 12:00:00 16.3 5 Nordeste 13 Este 0 -- -- 71
2019-04-16 11:00:00 14.8 3 Oeste 8 Sur 0 -- -- 81
2019-04-16 10:00:00 11.9 6 Oeste 9 Oeste 0 -- -- 100
2019-04-16 09:00:00 9.9 3 Sur 9 Sudoeste 0 -- -- 100
2019-04-16 08:00:00 7.6 4 Oeste 13 Oeste 0 -- -- 100
2019-04-16 07:00:00 8.3 4 Sudoeste 8 Oeste 0 -- -- 100
2019-04-16 06:00:00 8.7 0 Calma 12 Sudoeste 0 -- -- 100
2019-04-16 05:00:00 9.2 9 Sudoeste 14 Sudoeste 0 -- -- 100
2019-04-16 04:00:00 9.9 8 Oeste 14 Noroeste 0 -- -- 100
2019-04-16 03:00:00 10.4 8 Oeste 13 Oeste 0 -- -- 99
2019-04-16 02:00:00 11.4 8 Noroeste 15 Noroeste 0 -- -- 98
2019-04-16 01:00:00 11.6 6 Sudoeste 12 Sudoeste 0 -- -- 99
2019-04-16 00:00:00 11.9 4 Sudoeste 13 Sudoeste 0.2 -- -- 99
2019-04-15 23:00:00 12.2 8 Oeste 18 Sudoeste 0.2 -- -- 99
2019-04-15 22:00:00 12.4 6 Sudoeste 15 Oeste 0.6 -- -- 99
2019-04-15 21:00:00 12.8 9 Oeste 17 Oeste 0 -- -- 98
2019-04-15 20:00:00 13.2 7 Norte 39 Nordeste 0 -- -- 95
2019-04-15 19:00:00 13 24 Nordeste 50 Norte 3.4 -- -- 94
2019-04-15 18:00:00 14.3 9 Norte 42 Norte 12 -- -- 98
2019-04-15 17:00:00 16.5 20 Noroeste 63 Norte 0.2 -- -- 86
2019-04-15 16:00:00 24.1 11 Oeste 21 Sudoeste 0 -- -- 56
2019-04-15 15:00:00 22.8 8 Sudoeste 24 Oeste 0 -- -- 58
2019-04-15 14:00:00 23.4 7 Oeste 16 Oeste 0 -- -- 59
2019-04-15 13:00:00 22.6 10 Oeste 24 Sudoeste 0 -- -- 59
2019-04-15 12:00:00 23 9 Sudoeste 17 Sudoeste 0 -- -- 62
2019-04-15 11:00:00 19.1 4 Sur 11 Sudoeste 0 -- -- 84
2019-04-15 10:00:00 14.2 4 Sudoeste 10 Sudoeste 0 -- -- 99
2019-04-15 09:00:00 10.9 8 Sudoeste 13 Oeste 0 -- -- 100
2019-04-15 08:00:00 9.2 4 Oeste 10 Sudoeste 0 -- -- 100
2019-04-15 07:00:00 8.9 7 Oeste 11 Sudoeste 0 -- -- 100
2019-04-15 06:00:00 9.1 5 Oeste 12 Sudoeste 0 -- -- 100
2019-04-15 05:00:00 9.4 9 Oeste 10 Oeste 0 -- -- 99
2019-04-15 04:00:00 9.6 3 Sudoeste 8 Oeste 0 -- -- 98
2019-04-15 03:00:00 9.8 7 Oeste 9 Oeste 0 -- -- 98
2019-04-15 02:00:00 10.8 3 Este 5 Nordeste 0 -- -- 98
2019-04-15 01:00:00 11.2 3 Sudoeste 6 Nordeste 0 -- -- 95
2019-04-15 00:00:00 11.8 2 Nordeste 6 Este 0 -- -- 95
2019-04-14 23:00:00 12.4 4 Nordeste 11 Nordeste 0 -- -- 93
2019-04-14 22:00:00 12.8 3 Nordeste 13 Nordeste 0 -- -- 90
2019-04-14 21:00:00 13.6 7 Nordeste 15 Nordeste 0 -- -- 86
2019-04-14 20:00:00 15.7 6 Nordeste 13 Nordeste 0 -- -- 80
2019-04-14 19:00:00 17.4 5 Nordeste 12 Nordeste 0 -- -- 74
2019-04-14 18:00:00 18.1 5 Norte 12 Nordeste 0 -- -- 74
2019-04-14 17:00:00 16.5 7 Nordeste 21 Nordeste 0 -- -- 73
2019-04-14 16:00:00 16 13 Nordeste 25 Nordeste 0 -- -- 71
2019-04-14 15:00:00 16.8 8 Nordeste 22 Nordeste 0 -- -- 65
2019-04-14 14:00:00 16.9 13 Nordeste 21 Nordeste 0 -- -- 62
2019-04-14 13:00:00 15.5 11 Nordeste 23 Nordeste 0 -- -- 73
2019-04-14 12:00:00 15.8 10 Nordeste 15 Nordeste 0 -- -- 71
2019-04-14 11:00:00 15.2 0 Calma 5 Este 0 -- -- 74
2019-04-14 10:00:00 12 0 Calma 9 Sudoeste 0 -- -- 85
2019-04-14 09:00:00 10.3 4 Sudoeste 7 Oeste 0 -- -- 91
2019-04-14 08:00:00 9.6 5 Sudoeste 12 Sudoeste 0 -- -- 91
2019-04-14 07:00:00 8.9 9 Oeste 14 Sudoeste 0 -- -- 94
2019-04-14 06:00:00 8.9 2 Oeste 4 Sudoeste 0 -- -- 94
2019-04-14 05:00:00 8.5 3 Sudoeste 6 Sudoeste 0 -- -- 93
2019-04-14 04:00:00 8.6 3 Sudoeste 7 Oeste 0 -- -- 93
2019-04-14 03:00:00 8.5 5 Sudoeste 6 Sudoeste 0 -- -- 93
2019-04-14 02:00:00 8.9 5 Sudoeste 6 Sudoeste 0 -- -- 91
2019-04-14 01:00:00 9.1 4 Sudoeste 8 Sudoeste 0 -- -- 90
2019-04-14 00:00:00 9.5 5 Sudoeste 6 Sudoeste 0 -- -- 90
2019-04-13 23:00:00 10.3 0 Calma 6 Oeste 0 -- -- 83
2019-04-13 22:00:00 11.3 3 Este 10 Nordeste 0 -- -- 82
2019-04-13 21:00:00 12.6 7 Nordeste 17 Nordeste 0 -- -- 76
2019-04-13 20:00:00 14.7 10 Nordeste 22 Nordeste 0 -- -- 69
2019-04-13 19:00:00 16.4 17 Norte 29 Norte 0 -- -- 62
2019-04-13 18:00:00 17.2 18 Norte 29 Norte 0 -- -- 59
2019-04-13 17:00:00 18.1 19 Nordeste 30 Nordeste 0 -- -- 56
2019-04-13 16:00:00 18.6 16 Nordeste 26 Nordeste 0 -- -- 53
2019-04-13 15:00:00 18.3 17 Nordeste 26 Norte 0 -- -- 58
2019-04-13 14:00:00 17.7 14 Nordeste 22 Norte 0 -- -- 57
2019-04-13 13:00:00 17.2 13 Norte 22 Nordeste 0 -- -- 60
2019-04-13 12:00:00 15.5 7 Nordeste 12 Nordeste 0 -- -- 64
2019-04-13 11:00:00 12.4 2 Este 6 Sudeste 0 -- -- 76
2019-04-13 10:00:00 7.6 5 Sudoeste 11 Sudoeste 0 -- -- 94
2019-04-13 09:00:00 4.2 7 Sudoeste 10 Sudoeste 0 -- -- 100
2019-04-13 08:00:00 1.1 7 Oeste 10 Sudoeste 0 -- -- 100
2019-04-13 07:00:00 1.4 8 Sudoeste 10 Oeste 0 -- -- 99
2019-04-13 06:00:00 2 5 Sudoeste 10 Sudoeste 0 -- -- 99
2019-04-13 05:00:00 2.1 8 Oeste 9 Sudoeste 0 -- -- 98
2019-04-13 04:00:00 2.7 5 Sudoeste 10 Sudoeste 0 -- -- 98
2019-04-13 03:00:00 3.3 7 Sudoeste 9 Sudoeste 0 -- -- 98
2019-04-13 02:00:00 3.9 6 Oeste 7 Sudoeste 0 -- -- 96
2019-04-13 01:00:00 4.7 5 Sudoeste 8 Sudoeste 0 -- -- 95
2019-04-13 00:00:00 5.9 4 Sudoeste 8 Sudoeste 0 -- -- 93
2019-04-12 23:00:00 7.8 3 Sudoeste 5 Sudoeste 0 -- -- 88
2019-04-12 22:00:00 9.4 2 Nordeste 7 Este 0 -- -- 83
2019-04-12 21:00:00 10.6 3 Nordeste 9 Norte 0 -- -- 77
2019-04-12 20:00:00 12.9 6 Nordeste 14 Este 0 -- -- 66
2019-04-12 19:00:00 14.3 7 Nordeste 17 Norte 0 -- -- 60
2019-04-12 18:00:00 14.7 8 Nordeste 24 Nordeste 0 -- -- 64
2019-04-12 17:00:00 15.4 11 Nordeste 24 Norte 0 -- -- 65
2019-04-12 16:00:00 15.4 14 Nordeste 25 Nordeste 0 -- -- 61
2019-04-12 15:00:00 15 15 Nordeste 26 Nordeste 0 -- -- 60
2019-04-12 14:00:00 14.9 15 Nordeste 24 Este 0 -- -- 66
2019-04-12 13:00:00 14.8 15 Nordeste 24 Nordeste 0 -- -- 71
2019-04-12 12:00:00 14.1 8 Nordeste 13 Nordeste 0 -- -- 76
2019-04-12 11:00:00 12.3 4 Sudeste 9 Sudoeste 0 -- -- 84
2019-04-12 10:00:00 10.4 5 Sudoeste 10 Sudoeste 0 -- -- 94
2019-04-12 09:00:00 9.6 7 Sudoeste 10 Oeste 0 -- -- 96
2019-04-12 08:00:00 9.1 6 Sudoeste 9 Oeste 0 -- -- 96
2019-04-12 07:00:00 9 5 Sudoeste 13 Sudoeste 0 -- -- 97
2019-04-12 06:00:00 8.8 10 Sudoeste 14 Sudoeste 0 -- -- 98
2019-04-12 05:00:00 8.7 6 Sudoeste 10 Sudoeste 0 -- -- 99
2019-04-12 04:00:00 8.2 5 Sudoeste 9 Sudoeste 0 -- -- 99
2019-04-12 03:00:00 8.1 4 Sur 11 Sudoeste 0 -- -- 99
2019-04-12 02:00:00 8 4 Sudoeste 9 Sudoeste 0 -- -- 99
2019-04-12 01:00:00 7.7 4 Sudoeste 9 Sudoeste 0 -- -- 99
2019-04-12 00:00:00 7.3 5 Sudoeste 10 Sudoeste 0 -- -- 97
2019-04-11 23:00:00 8.1 7 Sudoeste 11 Oeste 0 -- -- 95
2019-04-11 22:00:00 9.3 3 Sur 16 Norte 0 -- -- 89
2019-04-11 21:00:00 10.4 5 Norte 13 Norte 0 -- -- 85
2019-04-11 20:00:00 12.1 4 Norte 17 Nordeste 0 -- -- 80
2019-04-11 19:00:00 12.6 8 Nordeste 23 Nordeste 0 -- -- 78
2019-04-11 18:00:00 13 14 Nordeste 24 Este 0 -- -- 79
2019-04-11 17:00:00 12.9 13 Nordeste 30 Nordeste 0 -- -- 79
2019-04-11 16:00:00 12.7 14 Nordeste 26 Nordeste 0 -- -- 84
2019-04-11 15:00:00 12.8 13 Norte 23 Noroeste 0.2 -- -- 85
2019-04-11 14:00:00 12.9 4 Norte 22 Nordeste 0 -- -- 82
2019-04-11 13:00:00 11.4 10 Nordeste 19 Nordeste 0 -- -- 90
2019-04-11 12:00:00 11.5 4 Sudoeste 10 Sudoeste 0 -- -- 95
2019-04-11 11:00:00 10.6 4 Sur 8 Sur 1.2 -- -- 100
2019-04-11 10:00:00 10 6 Sudoeste 9 Sudoeste 0 -- -- 100
2019-04-11 09:00:00 8.4 3 Sur 15 Noroeste 0 -- -- 100
2019-04-11 08:00:00 6.8 7 Sudoeste 11 Sudoeste 0 -- -- 100
2019-04-11 07:00:00 6.3 3 Sudoeste 10 Sudoeste 0.2 -- -- 100
2019-04-11 06:00:00 6.3 5 Sudoeste 9 Sur 0 -- -- 100
2019-04-11 05:00:00 6.6 2 Sudoeste 9 Sudoeste 0 -- -- 100
2019-04-11 04:00:00 7 6 Sudoeste 9 Sudoeste 0 -- -- 100
2019-04-11 03:00:00 7.7 3 Sudoeste 8 Sudoeste 0 -- -- 100
2019-04-11 02:00:00 8 6 Sudoeste 10 Sudoeste 0 -- -- 100
2019-04-11 01:00:00 7.9 4 Sudoeste 12 Oeste 0 -- -- 99
2019-04-11 00:00:00 8.1 6 Sudoeste 12 Sudoeste 8 -- -- 98
2019-04-10 23:00:00 9 8 Sudoeste 12 Oeste 0 -- -- 96
2019-04-10 22:00:00 9.9 6 Oeste 10 Sudoeste 0 -- -- 89
2019-04-10 21:00:00 11.3 7 Nordeste 16 Nordeste 0 -- -- 85
2019-04-10 20:00:00 11.8 9 Nordeste 25 Norte 0.2 -- -- 87
2019-04-10 19:00:00 12.9 8 Nordeste 21 Norte 0 -- -- 81
2019-04-10 18:00:00 12.7 12 Nordeste 26 Nordeste 0 -- -- 80
2019-04-10 17:00:00 11.9 4 Noroeste 14 Oeste 0 -- -- 81
2019-04-10 16:00:00 12.7 5 Noroeste 20 Nordeste 0 -- -- 75
2019-04-10 15:00:00 13 11 Nordeste 26 Este 0 -- -- 88
2019-04-10 14:00:00 12.6 14 Este 26 Nordeste 0 -- -- 89
2019-04-10 13:00:00 12.8 14 Nordeste 23 Nordeste 0 -- -- 88
2019-04-10 12:00:00 12.8 5 Sudeste 14 Sudoeste 0 -- -- 97
2019-04-10 11:00:00 10.6 6 Sur 15 Sudoeste 0.2 -- -- 100
2019-04-10 10:00:00 7.7 3 Sur 11 Oeste 2.4 -- -- 100
2019-04-10 09:00:00 5.6 5 Sur 13 Sudoeste 0 -- -- 100
2019-04-10 08:00:00 5.2 6 Sudoeste 11 Sudoeste 0 -- -- 100
2019-04-10 07:00:00 5.7 9 Sudoeste 14 Sudoeste 0 -- -- 100
2019-04-10 06:00:00 6.3 11 Sudoeste 15 Sudoeste 0 -- -- 100
2019-04-10 05:00:00 6.3 6 Sudoeste 13 Sudoeste 0 -- -- 100
2019-04-10 04:00:00 6.5 4 Sudoeste 10 Sudoeste 0 -- -- 100
2019-04-10 03:00:00 6.6 5 Sudoeste 7 Sudoeste 0 -- -- 100
2019-04-10 02:00:00 6.8 5 Sudoeste 8 Sudoeste 0 -- -- 100
2019-04-10 01:00:00 6.9 3 Sudoeste 7 Sudeste 0 -- -- 100
2019-04-10 00:00:00 7.6 5 Sudoeste 8 Oeste 0 -- -- 100
2019-04-09 23:00:00 8.3 3 Sudoeste 6 Oeste 0 -- -- 100
2019-04-09 22:00:00 8.7 3 Sur 15 Sudoeste 0 -- -- 100
2019-04-09 21:00:00 9 8 Sudoeste 14 Sudoeste 0.6 -- -- 100
2019-04-09 20:00:00 9.4 11 Sudoeste 31 Noroeste 2.4 -- -- 99
2019-04-09 19:00:00 9.7 17 Noroeste 40 Norte 11 -- -- 97
2019-04-09 18:00:00 13.2 6 Norte 26 Nordeste 0 -- -- 73
2019-04-09 17:00:00 14.7 15 Nordeste 25 Nordeste 0 -- -- 63
2019-04-09 16:00:00 15.2 13 Nordeste 31 Norte 0 -- -- 62
2019-04-09 15:00:00 17.8 16 Nordeste 28 Nordeste 0 -- -- 55
2019-04-09 14:00:00 16.9 10 Oeste 25 Oeste 0 -- -- 50
2019-04-09 13:00:00 17.8 16 Oeste 32 Oeste 0 -- -- 53
2019-04-09 12:00:00 16.5 16 Oeste 32 Oeste 0 -- -- 55
2019-04-09 11:00:00 15.4 13 Sudoeste 27 Sudoeste 0 -- -- 60
2019-04-09 10:00:00 13.8 8 Sudoeste 18 Sudoeste 0 -- -- 63
2019-04-09 09:00:00 10.1 4 Sur 16 Sudoeste 0 -- -- 76
2019-04-09 08:00:00 7.3 11 Sudoeste 20 Oeste 0 -- -- 85
2019-04-09 07:00:00 6 13 Sudoeste 15 Sudoeste 0 -- -- 96
2019-04-09 06:00:00 4.4 10 Sudoeste 15 Sudoeste 0 -- -- 99
2019-04-09 05:00:00 4.3 8 Sudoeste 13 Sudoeste 0 -- -- 98
2019-04-09 04:00:00 4.3 9 Sudoeste 12 Sudoeste 0 -- -- 98
2019-04-09 03:00:00 4.9 8 Sudoeste 13 Sudoeste 0 -- -- 97
2019-04-09 02:00:00 5.4 8 Oeste 11 Oeste 0 -- -- 97
2019-04-09 01:00:00 6.2 5 Sudoeste 9 Sudoeste 0 -- -- 95
2019-04-09 00:00:00 7.2 5 Sur 9 Oeste 0 -- -- 93
2019-04-08 23:00:00 8 2 Sur 9 Sudoeste 0 -- -- 91
2019-04-08 22:00:00 9.1 8 Sudoeste 11 Sudoeste 0 -- -- 85
2019-04-08 21:00:00 11.2 0 Calma 7 Nordeste 0 -- -- 75
2019-04-08 20:00:00 13.2 5 Norte 13 Este 0 -- -- 67
2019-04-08 19:00:00 15.3 3 Sur 12 Sudeste 0 -- -- 54
2019-04-08 18:00:00 14.1 4 Nordeste 13 Este 0 -- -- 62
2019-04-08 17:00:00 14.6 6 Nordeste 15 Nordeste 0 -- -- 62
2019-04-08 16:00:00 14.2 2 Sudeste 8 Sur 0 -- -- 76
2019-04-08 15:00:00 14.4 3 Sur 10 Sudeste 0 -- -- 83
2019-04-08 14:00:00 13.9 6 Sudoeste 11 Sudoeste 0 -- -- 88
2019-04-08 13:00:00 13.2 5 Sur 15 Noroeste 1 -- -- 89
2019-04-08 12:00:00 13.5 5 Norte 22 Nordeste 0 -- -- 82
2019-04-08 11:00:00 12.9 7 Norte 23 Noroeste 0.2 -- -- 86
2019-04-08 10:00:00 12.2 4 Oeste 11 Sudoeste 0 -- -- 88
2019-04-08 09:00:00 11.4 3 Noroeste 12 Oeste 0.4 -- -- 87
2019-04-08 08:00:00 10.7 2 Sudeste 10 Oeste 0 -- -- 83
2019-04-08 07:00:00 11.3 6 Sudoeste 10 Sudoeste 0 -- -- 78
2019-04-08 06:00:00 11.3 5 Sudoeste 13 Oeste 0 -- -- 76
2019-04-08 05:00:00 11.6 6 Sudoeste 16 Oeste 0 -- -- 70
2019-04-08 04:00:00 12.1 9 Oeste 28 Oeste 0 -- -- 67
2019-04-08 03:00:00 11.3 10 Sudoeste 17 Sudoeste 0 -- -- 68
2019-04-08 02:00:00 11.6 6 Sur 18 Sur 0 -- -- 67
2019-04-08 01:00:00 11.5 9 Sudoeste 24 Sudoeste 0 -- -- 69
2019-04-08 00:00:00 9 5 Sudoeste 15 Sur 0 -- -- 91
2019-04-07 23:00:00 9.6 4 Sudoeste 6 Sudoeste 0 -- -- 89
2019-04-07 22:00:00 10.3 3 Nordeste 11 Nordeste 0 -- -- 85
2019-04-07 21:00:00 11 6 Nordeste 14 Norte 0 -- -- 79
2019-04-07 20:00:00 12.1 7 Nordeste 22 Este 0 -- -- 75
2019-04-07 19:00:00 13.4 11 Este 21 Este 0 -- -- 72
2019-04-07 18:00:00 14.5 12 Nordeste 23 Norte 0 -- -- 71
2019-04-07 17:00:00 15.3 11 Nordeste 21 Norte 0 -- -- 67
2019-04-07 16:00:00 14.3 11 Nordeste 19 Este 0 -- -- 68
2019-04-07 15:00:00 14.4 9 Noroeste 21 Norte 0 -- -- 61
2019-04-07 14:00:00 13.5 10 Noroeste 31 Norte 0 -- -- 66
2019-04-07 13:00:00 12.5 17 Noroeste 35 Noroeste 0 -- -- 68
2019-04-07 12:00:00 11.8 7 Sudoeste 17 Oeste 0 -- -- 84
2019-04-07 11:00:00 9.1 5 Sudoeste 14 Sudoeste 0.4 -- -- 97
2019-04-07 10:00:00 8.2 6 Sudoeste 11 Oeste 0.2 -- -- 99
2019-04-07 09:00:00 7.3 8 Oeste 13 Sudoeste 0.4 -- -- 98
2019-04-07 08:00:00 7 6 Sudoeste 14 Sudoeste 0 -- -- 98
2019-04-07 07:00:00 6.9 9 Sudoeste 16 Sudoeste 0.2 -- -- 99
2019-04-07 06:00:00 6.7 5 Oeste 8 Oeste 0 -- -- 100
2019-04-07 05:00:00 6.5 4 Sudoeste 7 Sudoeste 0 -- -- 100
2019-04-07 04:00:00 6.4 5 Sudoeste 9 Sudoeste 0 -- -- 99
2019-04-07 03:00:00 6.8 8 Sudoeste 9 Sudoeste 0 -- -- 99
2019-04-07 02:00:00 6.9 5 Sudoeste 9 Oeste 0 -- -- 98
2019-04-07 01:00:00 7.2 6 Sudoeste 35 Noroeste 2.4 -- -- 95
2019-04-07 00:00:00 7.9 17 Noroeste 39 Noroeste 0 -- -- 86
2019-04-06 23:00:00 7.4 3 Oeste 9 Noroeste 0 -- -- 99
2019-04-06 22:00:00 7.5 6 Sudoeste 11 Oeste 0.2 -- -- 97
2019-04-06 21:00:00 8.1 7 Oeste 10 Oeste 2.6 -- -- 96
2019-04-06 20:00:00 9.1 6 Nordeste 32 Norte 1.6 -- -- 87
2019-04-06 19:00:00 11.8 9 Noroeste 19 Este 0 -- -- 73
2019-04-06 18:00:00 13 12 Este 23 Nordeste 0 -- -- 65
2019-04-06 17:00:00 15 16 Nordeste 32 Norte 0 -- -- 57
2019-04-06 16:00:00 16.2 12 Sudoeste 26 Oeste 0 -- -- 45
2019-04-06 15:00:00 15 14 Sudoeste 34 Sudoeste 0 -- -- 51
2019-04-06 14:00:00 16.2 20 Sudoeste 39 Sudoeste 0 -- -- 51
2019-04-06 13:00:00 15 19 Oeste 39 Noroeste 0 -- -- 51
2019-04-06 12:00:00 13.5 22 Oeste 40 Oeste 0 -- -- 55
2019-04-06 11:00:00 12.3 17 Oeste 37 Oeste 0 -- -- 60
2019-04-06 10:00:00 10.3 6 Sur 16 Sur 0 -- -- 77
2019-04-06 09:00:00 6.3 6 Sudoeste 10 Sudoeste 0 -- -- 100
2019-04-06 08:00:00 5.4 6 Sudoeste 12 Sudoeste 0 -- -- 99
2019-04-06 07:00:00 6.3 6 Sudoeste 10 Sudoeste 0 -- -- 98
2019-04-06 06:00:00 7 3 Sur 10 Oeste 0 -- -- 98
2019-04-06 05:00:00 7.4 4 Oeste 7 Oeste 0 -- -- 97
2019-04-06 04:00:00 7.9 2 Nordeste 10 Nordeste 0 -- -- 94
2019-04-06 03:00:00 7.2 3 Sur 11 Sudoeste 0.2 -- -- 98
2019-04-06 02:00:00 7.2 6 Sudoeste 11 Sudoeste 0 -- -- 98
2019-04-06 01:00:00 7.4 7 Sudoeste 10 Sudoeste 0 -- -- 98
2019-04-06 00:00:00 7.9 0 Calma 4 Norte 0 -- -- 98
2019-04-05 23:00:00 8.3 3 Nordeste 7 Oeste 0 -- -- 97
2019-04-05 22:00:00 8.8 0 Calma 12 Norte 0 -- -- 94
2019-04-05 21:00:00 9.2 5 Norte 10 Sudeste 0 -- -- 93
2019-04-05 20:00:00 9.8 6 Nordeste 21 Norte 1 -- -- 92
2019-04-05 19:00:00 10.9 13 Norte 27 Nordeste 0 -- -- 88
2019-04-05 18:00:00 11.6 18 Norte 27 Nordeste 0 -- -- 86
2019-04-05 17:00:00 13.1 8 Nordeste 36 Norte 0 -- -- 88
2019-04-05 16:00:00 13.4 18 Norte 27 Norte 0 -- -- 74
2019-04-05 15:00:00 15.6 12 Oeste 31 Oeste 0 -- -- 51
2019-04-05 14:00:00 16 14 Oeste 30 Sudoeste 0 -- -- 55
2019-04-05 13:00:00 14.6 17 Sudoeste 36 Oeste 0 -- -- 57
2019-04-05 12:00:00 13.2 12 Sudoeste 28 Sudoeste 0 -- -- 57
2019-04-05 11:00:00 12 8 Sudoeste 22 Sudoeste 0 -- -- 59
2019-04-05 10:00:00 11.7 9 Oeste 22 Oeste 0 -- -- 59
2019-04-05 09:00:00 10.5 8 Oeste 13 Oeste 0 -- -- 61
2019-04-05 08:00:00 9.8 5 Sudoeste 16 Oeste 0 -- -- 65
2019-04-05 07:00:00 9.8 6 Oeste 12 Sudoeste 0 -- -- 62
2019-04-05 06:00:00 9.7 8 Sudoeste 12 Oeste 0 -- -- 67
2019-04-05 05:00:00 10 5 Oeste 12 Sudoeste 0 -- -- 63
2019-04-05 04:00:00 10 8 Oeste 13 Oeste 0 -- -- 64
2019-04-05 03:00:00 10.5 10 Sudoeste 19 Sudoeste 0 -- -- 60
2019-04-05 02:00:00 11.2 15 Sudoeste 42 Oeste 0 -- -- 61
2019-04-05 01:00:00 11.3 22 Oeste 36 Oeste 0 -- -- 59
2019-04-05 00:00:00 12 19 Sudoeste 51 Oeste 0 -- -- 54
2019-04-04 23:00:00 12.6 21 Oeste 40 Oeste 0 -- -- 50
2019-04-04 22:00:00 9.4 5 Sudoeste 8 Sudoeste 0 -- -- 83
2019-04-04 21:00:00 10.1 0 Calma 10 Este 0 -- -- 79
2019-04-04 20:00:00 11 3 Nordeste 16 Nordeste 0 -- -- 75
2019-04-04 19:00:00 11.4 12 Nordeste 21 Este 0 -- -- 68
2019-04-04 18:00:00 12.6 13 Este 27 Sudeste 0 -- -- 63
2019-04-04 17:00:00 13.7 13 Nordeste 26 Este 0 -- -- 63
2019-04-04 16:00:00 15.8 3 Oeste 16 Sur 0 -- -- 42
2019-04-04 15:00:00 14.1 6 Oeste 22 Sur 0 -- -- 52
2019-04-04 14:00:00 11.9 9 Oeste 32 Oeste 0 -- -- 62
2019-04-04 13:00:00 10.4 12 Noroeste 28 Oeste 0 -- -- 69
2019-04-04 12:00:00 9.2 8 Sudoeste 16 Sudoeste 0 -- -- 88
2019-04-04 11:00:00 6.5 5 Sur 14 Sur 0.2 -- -- 100
2019-04-04 10:00:00 4.9 8 Sudoeste 17 Sudoeste 0 -- -- 98
2019-04-04 09:00:00 3.4 13 Sudoeste 21 Oeste 1.8 -- -- 98
2019-04-04 08:00:00 2.9 6 Sudoeste 14 Sudoeste 0 -- -- 100
2019-04-04 07:00:00 2.6 8 Sur 27 Oeste 0.2 -- -- 99
2019-04-04 06:00:00 3.1 6 Oeste 14 Sudoeste 3.4 -- -- 99
2019-04-04 05:00:00 3 8 Oeste 26 Oeste 5.4 -- -- 97
2019-04-04 04:00:00 4.1 10 Sudoeste 17 Sudoeste 1.8 -- -- 97
2019-04-04 03:00:00 3.9 12 Sudoeste 22 Sudoeste 0.8 -- -- 99
2019-04-04 02:00:00 3.7 12 Sudoeste 20 Oeste 1.2 -- -- 98
2019-04-04 01:00:00 3.9 11 Oeste 35 Oeste 2.6 -- -- 95
2019-04-04 00:00:00 3.7 8 Sudoeste 17 Sudoeste 0.4 -- -- 97
2019-04-03 23:00:00 3.6 11 Oeste 22 Noroeste 1.6 -- -- 95
2019-04-03 22:00:00 3.3 12 Sudoeste 26 Oeste 0.2 -- -- 94
2019-04-03 21:00:00 4.3 8 Oeste 52 Norte 2.4 -- -- 88
2019-04-03 20:00:00 6.2 13 Oeste 47 Noroeste 0.4 -- -- 80
2019-04-03 19:00:00 8.1 15 Noroeste 34 Oeste 0.2 -- -- 75
2019-04-03 18:00:00 8.2 9 Noroeste 42 Noroeste 0.2 -- -- 82
2019-04-03 17:00:00 6.8 10 Norte 39 Noroeste 2.2 -- -- 87
2019-04-03 16:00:00 7.7 12 Oeste 34 Oeste 0.2 -- -- 83
2019-04-03 15:00:00 6.7 8 Norte 44 Oeste 1.2 -- -- 86
2019-04-03 14:00:00 7.1 17 Noroeste 46 Noroeste 1.2 -- -- 85
2019-04-03 13:00:00 8.6 13 Oeste 39 Noroeste 0.4 -- -- 86
2019-04-03 12:00:00 7.6 8 Sudoeste 32 Noroeste 1.2 -- -- 89
2019-04-03 11:00:00 8 5 Este 32 Oeste 0.2 -- -- 83
2019-04-03 10:00:00 7.4 7 Sudoeste 27 Oeste 0.2 -- -- 92
2019-04-03 09:00:00 7.1 10 Oeste 28 Sudoeste 0.8 -- -- 90
2019-04-03 08:00:00 7.5 5 Noroeste 32 Norte 0.8 -- -- 89
2019-04-03 07:00:00 8.2 12 Noroeste 36 Norte 0 -- -- 85
2019-04-03 06:00:00 8.5 6 Oeste 14 Oeste 0.2 -- -- 85
2019-04-03 05:00:00 8.7 10 Oeste 22 Norte 0 -- -- 86
2019-04-03 04:00:00 8.5 7 Noroeste 19 Noroeste 0.2 -- -- 94
2019-04-03 03:00:00 8.6 5 Sudoeste 14 Oeste 0 -- -- 94
2019-04-03 02:00:00 9.1 8 Oeste 23 Nordeste 0.2 -- -- 90
2019-04-03 01:00:00 9.5 2 Este 17 Noroeste 0.2 -- -- 92
2019-04-03 00:00:00 9.7 2 Noroeste 18 Noroeste 0.6 -- -- 90
2019-04-02 23:00:00 9.9 5 Oeste 18 Nordeste 0.6 -- -- 93
2019-04-02 22:00:00 10.6 3 Oeste 9 Nordeste 0 -- -- 93
2019-04-02 21:00:00 11.4 3 Norte 18 Nordeste 0.6 -- -- 88
2019-04-02 20:00:00 12.3 16 Norte 25 Nordeste 0.2 -- -- 81
2019-04-02 19:00:00 13.2 10 Nordeste 26 Nordeste 0 -- -- 77
2019-04-02 18:00:00 13.9 13 Nordeste 25 Nordeste 0 -- -- 72
2019-04-02 17:00:00 14.5 9 Nordeste 33 Nordeste 0 -- -- 66
2019-04-02 16:00:00 15 22 Norte 37 Norte 0 -- -- 67
2019-04-02 15:00:00 16.1 19 Nordeste 31 Nordeste 0 -- -- 67
2019-04-02 14:00:00 15.8 14 Nordeste 29 Norte 0 -- -- 67
2019-04-02 13:00:00 14 9 Nordeste 27 Norte 0 -- -- 77
2019-04-02 12:00:00 13.9 7 Noroeste 23 Noroeste 0 -- -- 77
2019-04-02 11:00:00 12.7 11 Noroeste 22 Noroeste 0 -- -- 83
2019-04-02 10:00:00 10.6 5 Noroeste 12 Noroeste 0 -- -- 95
2019-04-02 09:00:00 9 5 Sudoeste 12 Sudoeste 0 -- -- 99
2019-04-02 08:00:00 7.9 8 Sudoeste 11 Sudoeste 0 -- -- 98
2019-04-02 07:00:00 8.5 7 Sudoeste 10 Sudoeste 0 -- -- 97
2019-04-02 06:00:00 9.8 7 Sudoeste 10 Sudoeste 0 -- -- 96
2019-04-02 05:00:00 10.5 8 Sudoeste 10 Sudoeste 0 -- -- 95
2019-04-02 04:00:00 11.1 7 Sudoeste 9 Oeste 0 -- -- 94
2019-04-02 03:00:00 11.5 0 Calma 6 Oeste 0 -- -- 90
2019-04-02 02:00:00 11.7 0 Calma 6 Oeste 0 -- -- 89
2019-04-02 01:00:00 12 4 Oeste 6 Oeste 0 -- -- 88
2019-04-02 00:00:00 12.2 0 Calma 4 Sudoeste 0 -- -- 86
2019-04-01 23:00:00 12.5 2 Este 5 Nordeste 0 -- -- 83
2019-04-01 22:00:00 13.1 3 Norte 4 Nordeste 0 -- -- 79
2019-04-01 21:00:00 13.6 3 Nordeste 11 Norte 0 -- -- 77
2019-04-01 20:00:00 14.3 7 Nordeste 14 Nordeste 0 -- -- 73
2019-04-01 19:00:00 14.9 6 Nordeste 12 Norte 0 -- -- 73
2019-04-01 18:00:00 15.2 7 Nordeste 13 Norte 0 -- -- 72
2019-04-01 17:00:00 14.7 8 Nordeste 18 Nordeste 0 -- -- 74
2019-04-01 16:00:00 15.8 13 Norte 20 Norte 0 -- -- 69
2019-04-01 15:00:00 16.3 8 Este 16 Este 0 -- -- 69
2019-04-01 14:00:00 16.8 4 Este 8 Este 0 -- -- 64
2019-04-01 13:00:00 16.7 3 Sudoeste 8 Nordeste 0 -- -- 66
2019-04-01 12:00:00 14.8 4 Norte 8 Norte 0 -- -- 81
2019-04-01 11:00:00 11.5 2 Este 4 Noroeste 0 -- -- 99
2019-04-01 10:00:00 10.3 0 Calma 4 Oeste 0 -- -- 99
2019-04-01 09:00:00 10 2 Sur 6 Noroeste 0.4 -- -- 98
2019-04-01 08:00:00 9.9 4 Oeste 7 Sur 0.2 -- -- 97
2019-04-01 07:00:00 10.1 3 Sudoeste 7 Oeste 0.4 -- -- 95
2019-04-01 06:00:00 10.7 3 Oeste 5 Oeste 0.4 -- -- 90
2019-04-01 05:00:00 10.9 4 Sur 12 Oeste 0 -- -- 84
2019-04-01 04:00:00 10.8 8 Oeste 13 Sudoeste 0 -- -- 80
2019-04-01 03:00:00 9.9 6 Sudoeste 9 Oeste 0 -- -- 83
2019-04-01 02:00:00 10.2 5 Sudoeste 7 Sudoeste 0 -- -- 79
2019-04-01 01:00:00 10.4 3 Sudoeste 8 Oeste 0 -- -- 76
2019-04-01 00:00:00 10.3 7 Oeste 8 Oeste 0 -- -- 78
2019-03-31 23:00:00 11 2 Este 8 Nordeste 0 -- -- 76
2019-03-31 22:00:00 11.9 6 Nordeste 12 Nordeste 0 -- -- 74
2019-03-31 21:00:00 13.1 5 Nordeste 12 Nordeste 0 -- -- 61
2019-03-31 20:00:00 15 5 Nordeste 15 Este 0 -- -- 51
2019-03-31 19:00:00 16.3 8 Este 22 Este 0 -- -- 48
2019-03-31 18:00:00 17 15 Este 25 Este 0 -- -- 49
2019-03-31 17:00:00 19.5 12 Nordeste 27 Norte 0 -- -- 49
2019-03-31 16:00:00 19.7 13 Nordeste 26 Nordeste 0 -- -- 53
2019-03-31 15:00:00 21.1 13 Este 25 Este 0 -- -- 37
2019-03-31 14:00:00 20.8 13 Nordeste 23 Norte 0 -- -- 49
2019-03-31 13:00:00 19.9 9 Nordeste 13 Nordeste 0 -- -- 49
2019-03-31 12:00:00 18 3 Nordeste 8 Norte 0 -- -- 53
2019-03-31 11:00:00 14.6 0 Calma 5 Sur 0 -- -- 64
2019-03-31 10:00:00 9.8 4 Sudoeste 11 Oeste 0 -- -- 87
2019-03-31 09:00:00 6.3 6 Sudoeste 12 Sudoeste 0 -- -- 99
2019-03-31 08:00:00 5 8 Sudoeste 10 Sudoeste 0 -- -- 97
2019-03-31 07:00:00 5.3 6 Sudoeste 13 Sudoeste 0 -- -- 97
2019-03-31 06:00:00 5.6 10 Oeste 12 Oeste 0 -- -- 96
2019-03-31 05:00:00 6.3 3 Sudoeste 10 Oeste 0 -- -- 96
2019-03-31 03:00:00 7.4 6 Sudoeste 10 Sudoeste 0 -- -- 94
2019-03-31 01:00:00 8.2 8 Sudoeste 10 Sudoeste 0 -- -- 91
2019-03-31 00:00:00 9.4 4 Sudoeste 8 Sudoeste 0 -- -- 88
2019-03-30 23:00:00 10.6 6 Oeste 8 Oeste 0 -- -- 81
2019-03-30 22:00:00 11.9 3 Sudoeste 11 Sudoeste 0 -- -- 82
2019-03-30 21:00:00 12.9 5 Sudoeste 7 Nordeste 0 -- -- 73
2019-03-30 20:00:00 14.5 6 Nordeste 18 Nordeste 0 -- -- 64
2019-03-30 19:00:00 16.2 10 Nordeste 17 Norte 0 -- -- 65
2019-03-30 18:00:00 18.6 10 Nordeste 22 Nordeste 0 -- -- 61
2019-03-30 17:00:00 20.3 13 Nordeste 23 Nordeste 0 -- -- 50
2019-03-30 16:00:00 21.2 12 Nordeste 22 Nordeste 0 -- -- 49
2019-03-30 15:00:00 22.7 13 Nordeste 21 Norte 0 -- -- 42
2019-03-30 14:00:00 22.8 8 Noroeste 22 Noroeste 0 -- -- 35
2019-03-30 13:00:00 21.7 11 Sudoeste 29 Sudoeste 0 -- -- 39
2019-03-30 12:00:00 20.3 17 Sudoeste 30 Oeste 0 -- -- 41
2019-03-30 11:00:00 18.8 17 Oeste 34 Sudoeste 0 -- -- 45
2019-03-30 10:00:00 16.9 20 Oeste 30 Oeste 0 -- -- 46
2019-03-30 09:00:00 16 9 Sudoeste 17 Sur 0 -- -- 47
2019-03-30 08:00:00 14.1 6 Sur 13 Sudeste 0 -- -- 49
2019-03-30 07:00:00 12.9 4 Sur 16 Sudoeste 0 -- -- 49
2019-03-30 06:00:00 14.3 12 Sudoeste 39 Sudoeste 0 -- -- 46
2019-03-30 05:00:00 14.8 23 Oeste 35 Oeste 0 -- -- 44
2019-03-30 04:00:00 14.9 17 Oeste 30 Oeste 0 -- -- 42
2019-03-30 03:00:00 15.4 19 Oeste 29 Oeste 0 -- -- 43
2019-03-30 02:00:00 15.5 16 Sudoeste 29 Sudoeste 0 -- -- 46
2019-03-30 01:00:00 15.6 18 Sudoeste 32 Sudoeste 0 -- -- 47
2019-03-30 00:00:00 13.4 15 Sudoeste 26 Oeste 0 -- -- 59
2019-03-29 23:00:00 9.6 6 Sudoeste 14 Oeste 0 -- -- 88
2019-03-29 22:00:00 10.3 3 Sudoeste 6 Sudoeste 0 -- -- 89
2019-03-29 21:00:00 11.8 0 Calma 7 Nordeste 0 -- -- 87
2019-03-29 20:00:00 12.7 6 Nordeste 19 Nordeste 0 -- -- 82
2019-03-29 19:00:00 14.5 9 Nordeste 19 Nordeste 0 -- -- 72
2019-03-29 18:00:00 16.7 12 Nordeste 25 Nordeste 0 -- -- 64
2019-03-29 17:00:00 17.5 14 Nordeste 25 Nordeste 0 -- -- 61
2019-03-29 16:00:00 18.5 17 Nordeste 26 Nordeste 0 -- -- 51
2019-03-29 15:00:00 18.5 16 Nordeste 27 Nordeste 0 -- -- 53
2019-03-29 14:00:00 18.6 14 Nordeste 23 Nordeste 0 -- -- 54
2019-03-29 13:00:00 19 12 Nordeste 21 Nordeste 0 -- -- 54
2019-03-29 12:00:00 17.8 3 Nordeste 9 Sudoeste 0 -- -- 51
2019-03-29 11:00:00 15.1 3 Noroeste 8 Sudoeste 0 -- -- 59
2019-03-29 10:00:00 11.9 4 Sur 8 Sur 0 -- -- 74
2019-03-29 09:00:00 7.3 5 Sudoeste 9 Sudoeste 0 -- -- 98
2019-03-29 08:00:00 4 5 Sudoeste 10 Sudoeste 0 -- -- 100
2019-03-29 07:00:00 3.3 7 Sudoeste 10 Sudoeste 0 -- -- 99
2019-03-29 06:00:00 3.7 6 Sudoeste 11 Sudoeste 0 -- -- 99
2019-03-29 05:00:00 4 5 Sudoeste 13 Sudoeste 0 -- -- 99
2019-03-29 04:00:00 4.1 8 Sudoeste 12 Oeste 0 -- -- 99
2019-03-29 03:00:00 4.4 9 Sudoeste 12 Sudoeste 0 -- -- 98
2019-03-29 02:00:00 4.6 7 Sudoeste 12 Sudoeste 0 -- -- 98
2019-03-29 01:00:00 4.9 8 Sudoeste 10 Sudoeste 0 -- -- 97
2019-03-29 00:00:00 5.6 9 Sudoeste 11 Sudoeste 0 -- -- 96
2019-03-28 23:00:00 6.5 5 Sudoeste 9 Sudoeste 0 -- -- 94
2019-03-28 22:00:00 7.3 8 Sudoeste 10 Sudoeste 0 -- -- 92
2019-03-28 21:00:00 8.9 3 Sur 8 Nordeste 0 -- -- 89
2019-03-28 20:00:00 9.9 8 Nordeste 12 Nordeste 0 -- -- 85
2019-03-28 19:00:00 11.2 6 Norte 21 Nordeste 0 -- -- 79
2019-03-28 18:00:00 13.3 15 Nordeste 26 Nordeste 0 -- -- 71
2019-03-28 17:00:00 14.1 16 Nordeste 27 Nordeste 0 -- -- 68
2019-03-28 16:00:00 14.8 17 Nordeste 28 Nordeste 0 -- -- 65
2019-03-28 15:00:00 15.2 15 Nordeste 26 Nordeste 0 -- -- 60
2019-03-28 14:00:00 14.8 16 Nordeste 27 Nordeste 0 -- -- 62
2019-03-28 13:00:00 14.6 18 Nordeste 28 Nordeste 0 -- -- 65
2019-03-28 12:00:00 14.9 14 Nordeste 23 Nordeste 0 -- -- 57
2019-03-28 11:00:00 14.5 3 Noroeste 13 Sur 0 -- -- 69
2019-03-28 10:00:00 12.5 4 Sudoeste 9 Sudoeste 0 -- -- 81
2019-03-28 09:00:00 8.5 3 Sudoeste 6 Oeste 0 -- -- 95
2019-03-28 08:00:00 5.6 4 Sudoeste 7 Oeste 0 -- -- 99
2019-03-28 07:00:00 4.6 5 Sudoeste 10 Sudoeste 0 -- -- 98
2019-03-28 06:00:00 5.1 0 Calma 8 Sudoeste 0 -- -- 97
2019-03-28 05:00:00 5.1 7 Sudoeste 9 Sudoeste 0 -- -- 97
2019-03-28 04:00:00 5.1 5 Sudoeste 8 Sudoeste 0 -- -- 96
2019-03-28 03:00:00 5.2 6 Sudoeste 8 Sudoeste 0 -- -- 94
2019-03-28 02:00:00 6 5 Sudoeste 8 Sudoeste 0 -- -- 92
2019-03-28 01:00:00 7 4 Sudoeste 7 Sudoeste 0 -- -- 89
2019-03-28 00:00:00 7.8 3 Sudoeste 7 Sudoeste 0 -- -- 88
2019-03-27 23:00:00 7.7 3 Sudoeste 7 Sudoeste 0 -- -- 89
2019-03-27 22:00:00 7.8 3 Sudoeste 6 Oeste 0 -- -- 86
2019-03-27 21:00:00 8.5 3 Oeste 7 Sudoeste 0 -- -- 82
2019-03-27 20:00:00 9.4 4 Nordeste 15 Nordeste 0 -- -- 79
2019-03-27 19:00:00 10.8 9 Nordeste 23 Nordeste 0 -- -- 74
2019-03-27 18:00:00 12 15 Nordeste 28 Norte 0 -- -- 70
2019-03-27 17:00:00 12.9 15 Nordeste 29 Nordeste 0 -- -- 68
2019-03-27 16:00:00 13.3 18 Nordeste 29 Norte 0 -- -- 67
2019-03-27 15:00:00 13.6 18 Nordeste 28 Norte 0 -- -- 66
2019-03-27 14:00:00 13.9 17 Nordeste 29 Nordeste 0 -- -- 60
2019-03-27 13:00:00 13.9 16 Nordeste 24 Nordeste 0 -- -- 58
2019-03-27 12:00:00 13.5 8 Nordeste 17 Norte 0 -- -- 65
2019-03-27 11:00:00 12.3 9 Nordeste 17 Nordeste 0 -- -- 68
2019-03-27 10:00:00 9.6 2 Norte 6 Oeste 0 -- -- 83
2019-03-27 09:00:00 6.2 2 Sudoeste 9 Sudoeste 0 -- -- 97
2019-03-27 08:00:00 3 6 Sudoeste 8 Sudoeste 0 -- -- 100
2019-03-27 07:00:00 1.8 6 Sudoeste 8 Sudoeste 0 -- -- 98
2019-03-27 06:00:00 2.5 0 Calma 11 Sudoeste 0 -- -- 99
2019-03-27 05:00:00 3 4 Sudoeste 8 Oeste 0 -- -- 97
2019-03-27 04:00:00 3.3 4 Sudoeste 8 Sudoeste 0 -- -- 97
2019-03-27 03:00:00 3.8 4 Sudoeste 8 Oeste 0 -- -- 96
2019-03-27 02:00:00 4.5 6 Sudoeste 8 Sudoeste 0 -- -- 95
2019-03-27 01:00:00 5.2 5 Sudoeste 8 Sudoeste 0 -- -- 92
2019-03-27 00:00:00 5.9 4 Sudoeste 8 Sur 0 -- -- 91